createdAt,value
2023-01-29T00:02:48.029Z,-0.70
2023-01-29T00:07:53.345Z,-0.60
2023-01-29T00:12:58.390Z,-0.50
2023-01-29T00:18:03.567Z,-0.50
2023-01-29T00:23:08.882Z,-0.50
2023-01-29T00:28:15.371Z,-0.50
2023-01-29T00:33:20.473Z,-0.40
2023-01-29T00:38:25.651Z,-0.50
2023-01-29T00:43:48.663Z,-0.50
2023-01-29T00:48:53.682Z,-0.50
2023-01-29T00:53:58.928Z,-0.40
2023-01-29T00:59:04.919Z,-0.40
2023-01-29T01:04:12.160Z,-0.40
2023-01-29T01:09:35.321Z,-0.40
2023-01-29T01:14:42.224Z,-0.30
2023-01-29T01:19:47.413Z,-0.30
2023-01-29T01:24:52.718Z,-0.30
2023-01-29T01:29:58.105Z,-0.30
2023-01-29T01:35:03.610Z,-0.30
2023-01-29T01:40:13.985Z,-0.20
2023-01-29T01:45:25.747Z,-0.20
2023-01-29T01:50:34.084Z,-0.30
2023-01-29T01:55:44.859Z,-0.20
2023-01-29T02:00:50.553Z,-0.20
2023-01-29T02:06:15.733Z,-0.20
2023-01-29T02:11:21.530Z,-0.20
2023-01-29T02:16:27.280Z,-0.20
2023-01-29T02:21:44.431Z,-0.10
2023-01-29T02:27:15.165Z,-0.10
2023-01-29T02:32:35.106Z,-0.10
2023-01-29T02:37:43.148Z,-0.10
2023-01-29T02:43:18.091Z,-0.10
2023-01-29T02:48:25.964Z,-0.10
2023-01-29T02:53:39.898Z,-0.10
2023-01-29T02:58:48.059Z,-0.10
2023-01-29T03:03:55.577Z,-0.10
2023-01-29T03:09:03.621Z,-0.10
2023-01-29T03:14:14.603Z,-0.10
2023-01-29T03:19:25.713Z,-0.10
2023-01-29T03:25:00.351Z,-0.10
2023-01-29T03:30:25.706Z,-0.10
2023-01-29T03:35:36.025Z,-0.10
2023-01-29T03:40:56.135Z,-0.10
2023-01-29T03:46:29.995Z,-0.10
2023-01-29T03:51:40.853Z,-0.10
2023-01-29T03:56:49.569Z,-0.10
2023-01-29T04:02:00.806Z,-0.10
2023-01-29T04:07:11.467Z,-0.10
2023-01-29T04:12:19.774Z,-0.10
2023-01-29T04:17:27.960Z,-0.10
2023-01-29T04:22:38.297Z,-0.10
2023-01-29T04:28:19.116Z,0.00
2023-01-29T04:33:42.030Z,-0.10
2023-01-29T04:39:11.936Z,-0.10
2023-01-29T04:44:38.215Z,-0.10
2023-01-29T04:49:58.242Z,-0.10
2023-01-29T04:55:06.422Z,-0.10
2023-01-29T05:00:17.673Z,-0.10
2023-01-29T05:05:23.473Z,-0.10
2023-01-29T05:10:29.135Z,-0.10
2023-01-29T05:15:40.266Z,-0.20
2023-01-29T05:20:45.740Z,-0.20
2023-01-29T05:25:52.804Z,-0.20
2023-01-29T05:30:58.601Z,-0.20
2023-01-29T05:36:04.165Z,-0.20
2023-01-29T05:41:10.184Z,-0.30
2023-01-29T05:46:15.329Z,-0.30
2023-01-29T05:51:20.879Z,-0.30
2023-01-29T05:56:27.519Z,-0.30
2023-01-29T06:01:33.154Z,-0.20
2023-01-29T06:06:38.408Z,-0.20
2023-01-29T06:11:43.971Z,-0.20
2023-01-29T06:16:49.165Z,-0.30
2023-01-29T06:21:54.258Z,-0.30
2023-01-29T06:26:59.264Z,-0.30
2023-01-29T06:32:04.544Z,-0.30
2023-01-29T06:37:09.886Z,-0.30
2023-01-29T06:42:15.092Z,-0.30
2023-01-29T06:47:20.135Z,-0.30
2023-01-29T06:52:26.965Z,-0.30
2023-01-29T06:57:32.080Z,-0.20
2023-01-29T07:02:37.146Z,-0.20
2023-01-29T07:07:42.462Z,-0.20
2023-01-29T07:12:47.642Z,-0.10
2023-01-29T07:18:01.149Z,-0.10
2023-01-29T07:23:06.596Z,-0.10
2023-01-29T07:28:11.911Z,0.00
2023-01-29T07:33:17.023Z,0.00
2023-01-29T07:38:22.306Z,0.00
2023-01-29T07:43:27.440Z,0.00
2023-01-29T07:48:32.683Z,0.00
2023-01-29T07:53:38.265Z,0.10
2023-01-29T07:58:43.512Z,0.10
2023-01-29T08:03:50.578Z,0.20
2023-01-29T08:08:57.057Z,0.20
2023-01-29T08:14:02.464Z,0.30
2023-01-29T08:19:07.789Z,0.30
2023-01-29T08:24:13.021Z,0.40
2023-01-29T08:29:18.546Z,0.40
2023-01-29T08:34:25.631Z,0.50
2023-01-29T08:39:34.771Z,0.50
2023-01-29T08:44:39.989Z,0.50
2023-01-29T08:49:45.173Z,0.50
2023-01-29T08:54:50.740Z,0.60
2023-01-29T08:59:55.964Z,0.60
2023-01-29T09:05:01.578Z,0.70
2023-01-29T09:10:07.630Z,0.70
2023-01-29T09:15:13.471Z,0.80
2023-01-29T09:20:19.733Z,0.80
2023-01-29T09:25:25.007Z,0.90
2023-01-29T09:30:30.408Z,0.90
2023-01-29T09:35:36.130Z,1.00
2023-01-29T09:40:56.483Z,1.00
2023-01-29T09:46:04.954Z,1.00
2023-01-29T09:51:15.969Z,1.00
2023-01-29T09:56:24.989Z,1.10
2023-01-29T10:01:42.014Z,1.10
2023-01-29T10:07:20.123Z,1.20
2023-01-29T10:12:40.151Z,1.20
2023-01-29T10:18:21.272Z,1.10
2023-01-29T10:23:34.364Z,1.20
2023-01-29T10:28:46.022Z,1.20
2023-01-29T10:34:01.944Z,1.30
2023-01-29T10:39:01.367Z,1.40
2023-01-29T10:44:27.462Z,1.30
2023-01-29T10:49:39.286Z,1.30
2023-01-29T10:55:07.197Z,1.30
2023-01-29T11:00:21.812Z,1.30
2023-01-29T11:05:36.143Z,1.40
2023-01-29T11:10:53.697Z,1.40
2023-01-29T11:15:59.108Z,1.50
2023-01-29T11:21:06.827Z,1.40
2023-01-29T11:26:18.045Z,1.40
2023-01-29T11:31:32.201Z,1.50
2023-01-29T11:36:39.527Z,1.60
2023-01-29T11:41:47.551Z,1.60
2023-01-29T11:46:52.809Z,1.60
2023-01-29T11:51:58.474Z,1.70
2023-01-29T11:57:05.328Z,1.70
2023-01-29T12:02:30.466Z,1.60
2023-01-29T12:07:37.615Z,1.60
2023-01-29T12:12:47.681Z,1.70
2023-01-29T12:18:12.395Z,1.60
2023-01-29T12:23:51.557Z,1.60
2023-01-29T12:29:26.411Z,1.60
2023-01-29T12:34:42.979Z,1.60
2023-01-29T12:39:54.252Z,1.50
2023-01-29T12:45:07.136Z,1.50
2023-01-29T12:50:24.351Z,1.50
2023-01-29T12:55:35.702Z,1.50
2023-01-29T13:00:47.410Z,1.50
2023-01-29T13:06:14.908Z,1.50
2023-01-29T13:11:29.374Z,1.50
2023-01-29T13:16:38.080Z,1.50
2023-01-29T13:21:45.600Z,1.40
2023-01-29T13:26:51.525Z,1.40
2023-01-29T13:32:02.862Z,1.40
2023-01-29T13:37:14.168Z,1.40
2023-01-29T13:42:28.071Z,1.40
2023-01-29T13:47:37.419Z,1.40
2023-01-29T13:52:48.593Z,1.40
2023-01-29T13:57:56.351Z,1.40
2023-01-29T14:03:15.069Z,1.30
2023-01-29T14:08:47.059Z,1.30
2023-01-29T14:14:00.141Z,1.30
2023-01-29T14:19:10.247Z,1.40
2023-01-29T14:24:28.671Z,1.30
2023-01-29T14:29:38.728Z,1.30
2023-01-29T14:35:04.002Z,1.30
2023-01-29T14:40:13.472Z,1.30
2023-01-29T14:45:34.184Z,1.30
2023-01-29T14:50:59.289Z,1.30
2023-01-29T14:56:19.693Z,1.30
2023-01-29T15:01:33.723Z,1.30
2023-01-29T15:06:51.241Z,1.30
2023-01-29T15:12:08.602Z,1.30
2023-01-29T15:17:25.907Z,1.30
2023-01-29T15:22:33.091Z,1.30
2023-01-29T15:27:47.561Z,1.30
2023-01-29T15:32:52.878Z,1.30
2023-01-29T15:38:10.017Z,1.20
2023-01-29T15:43:22.788Z,1.20
2023-01-29T15:48:34.046Z,1.20
2023-01-29T15:53:57.271Z,1.20
2023-01-29T15:59:09.354Z,1.20
2023-01-29T16:04:15.252Z,1.20
2023-01-29T16:09:25.079Z,1.20
2023-01-29T16:14:30.845Z,1.20
2023-01-29T16:19:36.153Z,1.20
2023-01-29T16:24:41.876Z,1.20
2023-01-29T16:29:47.200Z,1.10
2023-01-29T16:34:55.461Z,1.20
2023-01-29T16:40:00.862Z,1.20
2023-01-29T16:45:28.228Z,1.10
2023-01-29T16:50:53.042Z,1.20
2023-01-29T16:55:49.879Z,1.10
2023-01-29T17:01:07.462Z,1.10
2023-01-29T17:06:16.220Z,1.10
2023-01-29T17:11:39.705Z,1.10
2023-01-29T17:16:53.596Z,1.20
2023-01-29T17:21:59.401Z,1.20
2023-01-29T17:27:08.287Z,1.20
2023-01-29T17:32:13.810Z,1.20
2023-01-29T17:37:20.345Z,1.20
2023-01-29T17:42:25.832Z,1.20
2023-01-29T17:47:31.121Z,1.20
2023-01-29T17:52:36.764Z,1.20
2023-01-29T17:57:43.147Z,1.20
2023-01-29T18:02:48.848Z,1.30
2023-01-29T18:07:55.161Z,1.30
2023-01-29T18:13:00.463Z,1.30
2023-01-29T18:18:06.740Z,1.30
2023-01-29T18:23:14.030Z,1.30
2023-01-29T18:28:19.518Z,1.30
2023-01-29T18:33:25.933Z,1.30
2023-01-29T18:38:33.503Z,1.30
2023-01-29T18:43:41.825Z,1.30
2023-01-29T18:48:47.389Z,1.30
2023-01-29T18:53:53.086Z,1.30
2023-01-29T18:59:00.091Z,1.40
2023-01-29T19:04:05.576Z,1.40
2023-01-29T19:09:12.091Z,1.30
2023-01-29T19:14:18.545Z,1.30
2023-01-29T19:19:24.001Z,1.30
2023-01-29T19:24:29.991Z,1.40
2023-01-29T19:29:36.134Z,1.40
2023-01-29T19:34:41.631Z,1.40
2023-01-29T19:39:47.277Z,1.50
2023-01-29T19:45:08.127Z,1.50
2023-01-29T19:50:25.620Z,1.50
2023-01-29T19:55:37.186Z,1.50
2023-01-29T20:00:45.829Z,1.50
2023-01-29T20:06:06.197Z,1.50
2023-01-29T20:11:13.648Z,1.50
2023-01-29T20:16:21.982Z,1.50
2023-01-29T20:21:31.556Z,1.50
2023-01-29T20:26:37.091Z,1.50
2023-01-29T20:31:42.982Z,1.50
2023-01-29T20:36:48.469Z,1.50
2023-01-29T20:41:59.727Z,1.50
2023-01-29T20:47:06.406Z,1.50
2023-01-29T20:52:13.431Z,1.50
2023-01-29T20:57:26.538Z,1.50
2023-01-29T21:02:32.363Z,1.50
2023-01-29T21:07:38.077Z,1.50
2023-01-29T21:12:45.207Z,1.50
2023-01-29T21:17:51.939Z,1.50
2023-01-29T21:23:07.056Z,1.50
2023-01-29T21:28:12.569Z,1.50
2023-01-29T21:33:20.798Z,1.50
2023-01-29T21:38:28.236Z,1.50
2023-01-29T21:43:34.132Z,1.50
2023-01-29T21:48:42.014Z,1.50
2023-01-29T21:53:58.290Z,1.50
2023-01-29T21:59:05.782Z,1.50
2023-01-29T22:04:11.875Z,1.50
2023-01-29T22:09:21.749Z,1.50
2023-01-29T22:14:27.720Z,1.50
2023-01-29T22:19:35.016Z,1.50
2023-01-29T22:24:50.956Z,1.50
2023-01-29T22:29:59.033Z,1.50
2023-01-29T22:35:05.353Z,1.50
2023-01-29T22:40:12.969Z,1.50
2023-01-29T22:45:20.232Z,1.50
2023-01-29T22:50:30.791Z,1.50
2023-01-29T22:55:37.025Z,1.40
2023-01-29T23:00:53.264Z,1.50
2023-01-29T23:05:59.216Z,1.50
2023-01-29T23:11:18.176Z,1.50
2023-01-29T23:16:28.052Z,1.50
2023-01-29T23:21:33.989Z,1.50
2023-01-29T23:27:02.533Z,1.50
2023-01-29T23:32:08.269Z,1.50
2023-01-29T23:37:15.271Z,1.50
2023-01-29T23:42:20.853Z,1.60
2023-01-29T23:47:26.625Z,1.50
2023-01-29T23:52:34.534Z,1.50
2023-01-29T23:57:41.435Z,1.50
